Alpine Village, Colorado
Current Conditions -  °F | °C
As of 8:34 PM on Friday 31 Oct 2014 (Local Time) from K7BM Reporting Station
Clear Clear  
Wind Chill:   Ceiling: Unl
Heat Index:   Visibility: 10mi
Dew Point: -10°   Wind: 0mph
Humidity: 25%   Direction: NA
Pressure: 30.31"   Gusts: NA
Location:  38.7194°N, 106.276°W
Report Text: K7BM 010234Z AUTO 00000KT 10SM CLR 09/M10 A3031 RMK AO2 LTG DSNT S
Loading
Personal Weather Stations






























Interactive Weather Map
Tropical Storm Tracking
New forecast layout! Learn more

10-Day Weather Forecast

Advertisements
Track Severe Weather on mobile